KPMU/PMU METAR and TAF weather

Enter ICAO airport designator
Station Type Date Time Source
KPMU METAR 2022/09/26 08:55 UTC NOAA

KPMU 260855Z AUTO 00000KT 7SM CLR 14/13 A2998 RMK AO2


Station Type Date Time Source
KPMU Decoded METAR 2022/09/26 08:55 UTC NOAA

Station name not available
Sep 26, 2022 - 04:55 AM EDT / 2022.09.26 0855 UTC
Wind: Calm:0
Visibility: 7 mile(s):0
Sky conditions: clear
Temperature: 57 F (14 C)
Dew Point: 55 F (13 C)
Relative Humidity: 93%
Pressure (altimeter): 29.98 in. Hg (1015 hPa)
ob: KPMU 260855Z AUTO 00000KT 7SM CLR 14/13 A2998 RMK AO2
cycle: 9

Station Type Date Time Source
KPMU TAF UTC NOAA

Error!

Example: see airport list